createdAt,value
2018-01-02T00:00:26.005Z,98759.00
2018-01-02T00:02:53.492Z,98756.52
2018-01-02T00:05:20.937Z,98760.17
2018-01-02T00:07:48.458Z,98757.38
2018-01-02T00:10:15.937Z,98759.36
2018-01-02T00:12:43.348Z,98752.16
2018-01-02T00:15:10.786Z,98747.30
2018-01-02T00:17:38.207Z,98744.77
2018-01-02T00:20:05.648Z,98745.79
2018-01-02T00:22:33.114Z,98750.44
2018-01-02T00:25:00.880Z,98738.72
2018-01-02T00:27:28.297Z,98744.58
2018-01-02T00:29:55.758Z,98739.08
2018-01-02T00:32:23.252Z,98737.40
2018-01-02T00:34:51.388Z,98735.81
2018-01-02T00:37:18.814Z,98728.85
2018-01-02T00:39:46.240Z,98734.39
2018-01-02T00:42:13.969Z,98726.72
2018-01-02T00:44:41.381Z,98723.06
2018-01-02T00:47:09.044Z,98724.38
2018-01-02T00:49:36.472Z,98735.97
2018-01-02T00:52:03.917Z,98727.27
2018-01-02T00:54:31.349Z,98736.71
2018-01-02T00:56:58.772Z,98736.66
2018-01-02T00:59:26.283Z,98742.41
2018-01-02T01:01:54.379Z,98739.05
2018-01-02T01:04:21.810Z,98746.09
2018-01-02T01:06:49.254Z,98747.88
2018-01-02T01:09:19.600Z,98743.44
2018-01-02T01:11:47.032Z,98749.30
2018-01-02T01:14:14.480Z,98752.83
2018-01-02T01:16:41.904Z,98746.90
2018-01-02T01:19:09.329Z,98745.73
2018-01-02T01:21:36.772Z,98748.07
2018-01-02T01:24:04.174Z,98750.23
2018-01-02T01:26:31.650Z,98740.60
2018-01-02T01:28:59.087Z,98744.95
2018-01-02T01:31:26.515Z,98745.43
2018-01-02T01:33:54.027Z,98748.72
2018-01-02T01:36:21.488Z,98748.22
2018-01-02T01:38:48.912Z,98749.88
2018-01-02T01:41:16.347Z,98756.27
2018-01-02T01:43:43.780Z,98749.93
2018-01-02T01:46:11.192Z,98749.83
2018-01-02T01:48:51.272Z,98753.89
2018-01-02T01:51:19.450Z,98749.97
2018-01-02T01:53:47.388Z,98751.00
2018-01-02T01:56:14.816Z,98748.09
2018-01-02T01:58:42.721Z,98742.56
2018-01-02T02:01:10.148Z,98742.86
2018-01-02T02:03:37.606Z,98744.84
2018-01-02T02:06:05.048Z,98738.55
2018-01-02T02:08:33.264Z,98745.66
2018-01-02T02:11:00.689Z,98741.03
2018-01-02T02:13:28.160Z,98743.23
2018-01-02T02:15:55.618Z,98739.73
2018-01-02T02:18:23.095Z,98741.20
2018-01-02T02:20:51.541Z,98741.91
2018-01-02T02:23:18.983Z,98742.11
2018-01-02T02:25:46.392Z,98743.62
2018-01-02T02:28:13.848Z,98747.17
2018-01-02T02:30:41.318Z,98740.06
2018-01-02T02:33:08.793Z,98745.34
2018-01-02T02:35:36.216Z,98738.09
2018-01-02T02:38:05.025Z,98735.84
2018-01-02T02:40:44.115Z,98739.70
2018-01-02T02:43:11.539Z,98735.45
2018-01-02T02:45:38.968Z,98741.89
2018-01-02T02:48:06.379Z,98746.77
2018-01-02T02:50:33.817Z,98743.67
2018-01-02T02:53:01.246Z,98743.17
2018-01-02T02:55:28.699Z,98741.95
2018-01-02T02:57:56.154Z,98749.05
2018-01-02T03:00:23.567Z,98753.63
2018-01-02T03:02:50.986Z,98753.78
2018-01-02T03:05:18.419Z,98752.56
2018-01-02T03:07:45.849Z,98757.08
2018-01-02T03:10:13.271Z,98754.03
2018-01-02T03:12:40.700Z,98757.22
2018-01-02T03:15:08.152Z,98761.33
2018-01-02T03:17:35.592Z,98763.72
2018-01-02T03:20:03.024Z,98767.53
2018-01-02T03:22:31.294Z,98772.52
2018-01-02T03:24:58.729Z,98776.52
2018-01-02T03:27:26.259Z,98773.37
2018-01-02T03:29:55.216Z,98778.08
2018-01-02T03:32:22.692Z,98780.93
2018-01-02T03:34:50.105Z,98779.94
2018-01-02T03:37:17.533Z,98787.44
2018-01-02T03:39:44.945Z,98800.23
2018-01-02T03:42:12.404Z,98795.10
2018-01-02T03:44:39.814Z,98796.37
2018-01-02T03:47:07.301Z,98799.79
2018-01-02T03:49:34.822Z,98801.22
2018-01-02T03:52:02.231Z,98806.53
2018-01-02T03:54:29.658Z,98817.78
2018-01-02T03:56:57.072Z,98823.31
2018-01-02T03:59:24.517Z,98823.16
2018-01-02T04:01:51.943Z,98826.75
2018-01-02T04:04:19.385Z,98829.30
2018-01-02T04:06:46.838Z,98830.73
2018-01-02T04:09:14.288Z,98837.66
2018-01-02T04:11:42.313Z,98849.42
2018-01-02T04:14:09.767Z,98860.83
2018-01-02T04:16:37.179Z,98860.77
2018-01-02T04:19:04.616Z,98873.61
2018-01-02T04:21:32.039Z,98879.69
2018-01-02T04:23:59.447Z,98883.83
2018-01-02T04:26:26.895Z,98882.41
2018-01-02T04:28:54.310Z,98899.56
2018-01-02T04:31:21.769Z,98910.97
2018-01-02T04:33:50.345Z,98906.61
2018-01-02T04:36:17.763Z,98916.33
2018-01-02T04:38:45.208Z,98916.95
2018-01-02T04:41:13.928Z,98925.20
2018-01-02T04:43:41.357Z,98934.87
2018-01-02T04:46:08.792Z,98940.78
2018-01-02T04:48:36.265Z,98944.38
2018-01-02T04:51:03.712Z,98950.09
2018-01-02T04:53:31.135Z,98962.12
2018-01-02T04:55:58.581Z,98971.75
2018-01-02T04:58:26.087Z,98975.56
2018-01-02T05:00:53.514Z,98991.28
2018-01-02T05:03:20.962Z,98988.94
2018-01-02T05:05:48.400Z,99003.23
2018-01-02T05:08:15.827Z,99006.19
2018-01-02T05:10:43.329Z,99007.29
2018-01-02T05:13:10.728Z,99030.72
2018-01-02T05:15:38.943Z,99025.66
2018-01-02T05:18:06.452Z,99030.45
2018-01-02T05:20:34.766Z,99042.78
2018-01-02T05:23:02.193Z,99039.11
2018-01-02T05:25:29.632Z,99047.30
2018-01-02T05:27:57.048Z,99055.91
2018-01-02T05:30:24.478Z,99062.09
2018-01-02T05:32:51.945Z,99077.83
2018-01-02T05:35:19.374Z,99071.27
2018-01-02T05:37:46.816Z,99085.25
2018-01-02T05:40:15.763Z,99083.55
2018-01-02T05:42:43.250Z,99097.16
2018-01-02T05:45:10.765Z,99090.34
2018-01-02T05:47:38.240Z,99095.50
2018-01-02T05:50:05.969Z,99099.78
2018-01-02T05:52:33.480Z,99104.45
2018-01-02T05:55:00.975Z,99110.80
2018-01-02T05:57:29.571Z,99110.42
2018-01-02T05:59:57.642Z,99113.88
2018-01-02T06:02:27.581Z,99119.98
2018-01-02T06:04:56.553Z,99125.17
2018-01-02T06:07:24.593Z,99126.20
2018-01-02T06:09:52.097Z,99134.25
2018-01-02T06:12:19.593Z,99136.27
2018-01-02T06:14:47.034Z,99141.12
2018-01-02T06:17:14.513Z,99152.20
2018-01-02T06:19:41.975Z,99157.72
2018-01-02T06:22:09.396Z,99162.64
2018-01-02T06:24:36.871Z,99166.16
2018-01-02T06:27:04.293Z,99167.92
2018-01-02T06:29:31.740Z,99181.47
2018-01-02T06:31:59.240Z,99190.27
2018-01-02T06:34:26.653Z,99199.02
2018-01-02T06:36:54.178Z,99207.24
2018-01-02T06:39:21.576Z,99217.16
2018-01-02T06:41:49.012Z,99224.72
2018-01-02T06:44:16.464Z,99227.50
2018-01-02T06:46:43.925Z,99237.02
2018-01-02T06:49:11.351Z,99244.55
2018-01-02T06:51:38.854Z,99249.73
2018-01-02T06:54:06.287Z,99259.55
2018-01-02T06:56:33.718Z,99263.56
2018-01-02T06:59:01.165Z,99272.03
2018-01-02T07:01:28.591Z,99276.02
2018-01-02T07:03:56.102Z,99281.83
2018-01-02T07:06:23.561Z,99287.67
2018-01-02T07:08:51.003Z,99298.98
2018-01-02T07:11:19.255Z,99308.10
2018-01-02T07:13:47.353Z,99317.57
2018-01-02T07:16:14.768Z,99317.86
2018-01-02T07:18:42.230Z,99322.61
2018-01-02T07:21:09.712Z,99326.55
2018-01-02T07:23:37.138Z,99337.46
2018-01-02T07:26:04.584Z,99341.28
2018-01-02T07:28:32.002Z,99353.67
2018-01-02T07:30:59.449Z,99362.75
2018-01-02T07:33:27.508Z,99366.17
2018-01-02T07:35:54.936Z,99371.81
2018-01-02T07:38:22.455Z,99382.63
2018-01-02T07:40:49.971Z,99380.78
2018-01-02T07:43:17.414Z,99389.89
2018-01-02T07:45:44.896Z,99397.27
2018-01-02T07:48:12.329Z,99402.94
2018-01-02T07:50:39.776Z,99411.07
2018-01-02T07:53:07.240Z,99415.02
2018-01-02T07:55:34.692Z,99418.72
2018-01-02T07:58:02.265Z,99420.68
2018-01-02T08:00:29.712Z,99429.89
2018-01-02T08:02:57.176Z,99435.02
2018-01-02T08:05:24.626Z,99442.42
2018-01-02T08:07:52.043Z,99443.84
2018-01-02T08:10:19.460Z,99441.47
2018-01-02T08:12:46.915Z,99454.63
2018-01-02T08:15:14.361Z,99457.53
2018-01-02T08:17:41.791Z,99465.44
2018-01-02T08:20:09.228Z,99473.06
2018-01-02T08:22:36.720Z,99472.94
2018-01-02T08:25:04.236Z,99483.59
2018-01-02T08:27:31.681Z,99466.89
2018-01-02T08:29:59.137Z,99485.97
2018-01-02T08:32:26.600Z,99492.58
2018-01-02T08:34:54.072Z,99494.41
2018-01-02T08:37:21.556Z,99500.34
2018-01-02T08:39:49.015Z,99501.66
2018-01-02T08:42:16.448Z,99507.84
2018-01-02T08:44:43.876Z,99520.09
2018-01-02T08:47:11.370Z,99522.73
2018-01-02T08:49:39.482Z,99515.73
2018-01-02T08:52:07.028Z,99535.11
2018-01-02T08:54:34.481Z,99537.48
2018-01-02T08:57:01.973Z,99538.80
2018-01-02T08:59:30.251Z,99552.50
2018-01-02T09:01:57.693Z,99559.22
2018-01-02T09:04:25.431Z,99557.91
2018-01-02T09:06:52.841Z,99565.80
2018-01-02T09:09:20.297Z,99569.08
2018-01-02T09:11:47.773Z,99570.27
2018-01-02T09:14:15.222Z,99575.94
2018-01-02T09:16:42.663Z,99595.29
2018-01-02T09:19:10.121Z,99599.00
2018-01-02T09:21:37.555Z,99602.00
2018-01-02T09:24:05.014Z,99599.00
2018-01-02T09:26:32.483Z,99608.87
2018-01-02T09:28:59.916Z,99617.55
2018-01-02T09:31:27.371Z,99609.14
2018-01-02T09:33:54.809Z,99616.23
2018-01-02T09:36:22.260Z,99621.51
2018-01-02T09:38:49.676Z,99622.83
2018-01-02T09:41:17.104Z,99631.91
2018-01-02T09:43:44.602Z,99623.77
2018-01-02T09:46:12.042Z,99630.22
2018-01-02T09:48:39.743Z,99636.14
2018-01-02T09:51:07.201Z,99639.59
2018-01-02T09:53:34.689Z,99631.81
2018-01-02T09:56:02.131Z,99631.68
2018-01-02T09:58:29.658Z,99633.64
2018-01-02T10:00:57.075Z,99635.36
2018-01-02T10:03:24.574Z,99646.55
2018-01-02T10:05:52.344Z,99644.96
2018-01-02T10:08:19.793Z,99645.37
2018-01-02T10:10:47.208Z,99655.40
2018-01-02T10:13:14.653Z,99658.17
2018-01-02T10:15:42.138Z,99660.67
2018-01-02T10:18:09.639Z,99661.72
2018-01-02T10:20:38.468Z,99666.86
2018-01-02T10:23:05.934Z,99669.09
2018-01-02T10:25:33.386Z,99666.99
2018-01-02T10:28:00.968Z,99666.59
2018-01-02T10:30:28.427Z,99667.13
2018-01-02T10:32:55.847Z,99676.09
2018-01-02T10:35:24.503Z,99686.49
2018-01-02T10:37:51.911Z,99684.27
2018-01-02T10:40:19.883Z,99685.31
2018-01-02T10:42:47.373Z,99688.22
2018-01-02T10:45:16.937Z,99689.53
2018-01-02T10:47:44.388Z,99689.91
2018-01-02T10:50:11.953Z,99692.95
2018-01-02T10:52:39.444Z,99692.04
2018-01-02T10:55:07.220Z,99685.45
2018-01-02T10:57:35.646Z,99691.77
2018-01-02T11:00:03.108Z,99700.33
2018-01-02T11:02:30.571Z,99689.91
2018-01-02T11:04:58.964Z,99698.22
2018-01-02T11:07:26.429Z,99695.19
2018-01-02T11:09:53.939Z,99695.99
2018-01-02T11:12:26.812Z,99706.54
2018-01-02T11:14:54.247Z,99712.32
2018-01-02T11:17:21.718Z,99707.58
2018-01-02T11:19:49.180Z,99710.22
2018-01-02T11:22:16.619Z,99711.91
2018-01-02T11:24:44.148Z,99717.70
2018-01-02T11:27:12.374Z,99708.57
2018-01-02T11:29:39.820Z,99719.91
2018-01-02T11:32:08.217Z,99720.33
2018-01-02T11:34:35.663Z,99726.11
2018-01-02T11:37:03.281Z,99724.66
2018-01-02T11:39:30.737Z,99722.25
2018-01-02T11:41:58.425Z,99722.39
2018-01-02T11:44:25.904Z,99735.46
2018-01-02T11:46:53.350Z,99731.27
2018-01-02T11:49:20.799Z,99732.32
2018-01-02T11:51:48.260Z,99737.34
2018-01-02T11:54:15.708Z,99732.70
2018-01-02T11:56:43.172Z,99728.75
2018-01-02T11:59:10.643Z,99729.55
2018-01-02T12:01:38.114Z,99733.09
2018-01-02T12:04:05.609Z,99746.81
2018-01-02T12:06:33.077Z,99742.16
2018-01-02T12:09:00.617Z,99739.25
2018-01-02T12:11:28.116Z,99744.41
2018-01-02T12:13:55.866Z,99749.81
2018-01-02T12:16:23.333Z,99744.67
2018-01-02T12:18:50.774Z,99747.05
2018-01-02T12:21:18.225Z,99745.48
2018-01-02T12:23:45.664Z,99749.58
2018-01-02T12:26:13.103Z,99750.77
2018-01-02T12:28:40.561Z,99754.44
2018-01-02T12:31:08.000Z,99758.80
2018-01-02T12:33:35.453Z,99765.39
2018-01-02T12:36:02.920Z,99756.92
2018-01-02T12:38:30.522Z,99757.30
2018-01-02T12:40:57.946Z,99768.89
2018-01-02T12:43:25.391Z,99764.63
2018-01-02T12:45:52.850Z,99762.77
2018-01-02T12:48:20.295Z,99759.87
2018-01-02T12:50:47.781Z,99768.88
2018-01-02T12:53:15.223Z,99764.08
2018-01-02T12:55:42.666Z,99770.92
2018-01-02T12:58:10.096Z,99772.10
2018-01-02T13:00:37.535Z,99776.03
2018-01-02T13:03:04.980Z,99764.66
2018-01-02T13:05:32.439Z,99775.11
2018-01-02T13:07:59.973Z,99773.63
2018-01-02T13:10:27.428Z,99771.72
2018-01-02T13:12:54.871Z,99778.30
2018-01-02T13:15:22.313Z,99785.59
2018-01-02T13:17:49.862Z,99795.36
2018-01-02T13:20:17.329Z,99794.33
2018-01-02T13:22:44.828Z,99795.59
2018-01-02T13:25:12.333Z,99797.73
2018-01-02T13:27:39.802Z,99802.36
2018-01-02T13:30:07.248Z,99806.48
2018-01-02T13:32:34.710Z,99805.30
2018-01-02T13:35:02.153Z,99812.55
2018-01-02T13:37:30.265Z,99812.15
2018-01-02T13:39:57.679Z,99810.81
2018-01-02T13:42:25.153Z,99815.45
2018-01-02T13:44:52.624Z,99816.55
2018-01-02T13:47:20.362Z,99822.34
2018-01-02T13:49:47.808Z,99811.23
2018-01-02T13:52:15.244Z,99812.65
2018-01-02T13:54:42.667Z,99812.66
2018-01-02T13:57:10.748Z,99814.52
2018-01-02T13:59:38.499Z,99821.91
2018-01-02T14:02:05.921Z,99815.08
2018-01-02T14:04:33.990Z,99815.33
2018-01-02T14:07:01.652Z,99818.94
2018-01-02T14:09:30.656Z,99817.75
2018-01-02T14:11:59.048Z,99816.58
2018-01-02T14:14:26.483Z,99817.91
2018-01-02T14:16:53.977Z,99816.04
2018-01-02T14:19:21.465Z,99821.47
2018-01-02T14:21:48.916Z,99818.69
2018-01-02T14:24:16.389Z,99820.16
2018-01-02T14:26:43.844Z,99824.66
2018-01-02T14:29:11.588Z,99832.17
2018-01-02T14:31:39.882Z,99830.05
2018-01-02T14:34:07.334Z,99832.58
2018-01-02T14:36:36.719Z,99841.56
2018-01-02T14:39:09.134Z,99851.31
2018-01-02T14:41:38.674Z,99848.95
2018-01-02T14:44:06.125Z,99848.43
2018-01-02T14:46:33.682Z,99843.52
2018-01-02T14:49:01.193Z,99853.71
2018-01-02T14:51:28.629Z,99859.00
2018-01-02T14:53:56.104Z,99859.78
2018-01-02T14:56:23.643Z,99865.98
2018-01-02T14:58:51.119Z,99868.34
2018-01-02T15:01:18.614Z,99872.31
2018-01-02T15:03:46.093Z,99873.91
2018-01-02T15:06:13.663Z,99879.72
2018-01-02T15:08:41.087Z,99871.53
2018-01-02T15:11:08.573Z,99877.48
2018-01-02T15:13:36.033Z,99879.72
2018-01-02T15:16:03.737Z,99880.36
2018-01-02T15:18:31.224Z,99885.78
2018-01-02T15:20:58.668Z,99886.59
2018-01-02T15:23:26.117Z,99889.09
2018-01-02T15:25:53.564Z,99889.47
2018-01-02T15:28:26.056Z,99892.11
2018-01-02T15:30:53.517Z,99902.44
2018-01-02T15:33:20.973Z,99910.09
2018-01-02T15:35:48.455Z,99903.22
2018-01-02T15:38:15.919Z,99910.23
2018-01-02T15:40:43.382Z,99912.59
2018-01-02T15:43:10.899Z,99907.18
2018-01-02T15:45:38.346Z,99911.41
2018-01-02T15:48:05.784Z,99915.64
2018-01-02T15:50:33.601Z,99915.38
2018-01-02T15:53:01.093Z,99915.10
2018-01-02T15:55:28.526Z,99910.61
2018-01-02T15:58:01.018Z,99913.28
2018-01-02T16:00:28.481Z,99912.73
2018-01-02T16:02:55.999Z,99913.92
2018-01-02T16:05:24.464Z,99909.17
2018-01-02T16:07:56.912Z,99910.60
2018-01-02T16:10:24.358Z,99919.84
2018-01-02T16:12:51.841Z,99917.87
2018-01-02T16:15:19.371Z,99910.23
2018-01-02T16:17:46.826Z,99908.91
2018-01-02T16:20:14.322Z,99906.78
2018-01-02T16:22:41.755Z,99915.23
2018-01-02T16:25:09.235Z,99916.56
2018-01-02T16:27:36.684Z,99916.70
2018-01-02T16:30:04.274Z,99912.59
2018-01-02T16:32:31.763Z,99906.41
2018-01-02T16:34:59.262Z,99912.59
2018-01-02T16:37:26.690Z,99916.70
2018-01-02T16:39:54.132Z,99912.59
2018-01-02T16:42:21.648Z,99915.23
2018-01-02T16:44:49.081Z,99914.46
2018-01-02T16:47:16.527Z,99913.38
2018-01-02T16:49:44.012Z,99913.65
2018-01-02T16:52:11.480Z,99911.01
2018-01-02T16:54:39.750Z,99908.37
2018-01-02T16:57:07.247Z,99917.61
2018-01-02T16:59:34.857Z,99913.52
2018-01-02T17:02:02.326Z,99908.91
2018-01-02T17:04:29.827Z,99903.09
2018-01-02T17:06:57.245Z,99900.45
2018-01-02T17:09:24.957Z,99909.05
2018-01-02T17:11:52.396Z,99909.31
2018-01-02T17:14:19.820Z,99906.41
2018-01-02T17:16:48.752Z,99909.55
2018-01-02T17:19:16.242Z,99916.97
2018-01-02T17:21:43.728Z,99921.06
2018-01-02T17:24:11.314Z,99922.75
2018-01-02T17:26:38.807Z,99933.31
2018-01-02T17:29:06.306Z,99926.84
2018-01-02T17:31:33.859Z,99929.61
2018-01-02T17:34:01.325Z,99931.73
2018-01-02T17:36:28.852Z,99940.56
2018-01-02T17:38:56.314Z,99942.02
2018-01-02T17:41:23.796Z,99945.30
2018-01-02T17:43:51.316Z,99944.78
2018-01-02T17:46:18.779Z,99948.06
2018-01-02T17:48:46.367Z,99955.59
2018-01-02T17:51:13.828Z,99950.82
2018-01-02T17:53:41.293Z,99948.44
2018-01-02T17:56:09.412Z,99954.51
2018-01-02T17:58:36.853Z,99968.09
2018-01-02T18:01:04.324Z,99968.36
2018-01-02T18:03:31.748Z,99966.75
2018-01-02T18:05:59.244Z,99962.14
2018-01-02T18:08:26.710Z,99967.00
2018-01-02T18:10:54.246Z,99965.13
2018-01-02T18:13:21.685Z,99962.38
2018-01-02T18:15:49.125Z,99968.30
2018-01-02T18:18:16.583Z,99964.63
2018-01-02T18:20:44.083Z,99972.91
2018-01-02T18:23:11.528Z,99969.17
2018-01-02T18:25:39.027Z,99969.42
2018-01-02T18:28:06.522Z,99971.67
2018-01-02T18:30:33.975Z,99969.94
2018-01-02T18:33:01.474Z,99967.44
2018-01-02T18:35:28.968Z,99977.29
2018-01-02T18:37:56.498Z,99970.31
2018-01-02T18:40:23.942Z,99975.57
2018-01-02T18:42:51.423Z,99964.08
2018-01-02T18:45:18.916Z,99959.88
2018-01-02T18:47:46.435Z,99954.84
2018-01-02T18:50:13.895Z,99952.20
2018-01-02T18:52:41.319Z,99957.31
2018-01-02T18:55:08.805Z,99950.36
2018-01-02T18:57:41.189Z,99951.27
2018-01-02T19:00:08.663Z,99947.20
2018-01-02T19:02:36.113Z,99931.94
2018-01-02T19:05:03.690Z,99934.95
2018-01-02T19:07:31.167Z,99930.07
2018-01-02T19:09:58.647Z,99935.47
2018-01-02T19:12:26.129Z,99942.84
2018-01-02T19:14:53.605Z,99942.07
2018-01-02T19:17:22.271Z,99939.41
2018-01-02T19:19:49.833Z,99945.20
2018-01-02T19:22:17.331Z,99942.02
2018-01-02T19:24:44.729Z,99934.39
2018-01-02T19:27:12.208Z,99928.71
2018-01-02T19:29:39.734Z,99914.23
2018-01-02T19:32:07.197Z,99911.98
2018-01-02T19:34:34.777Z,99909.61
2018-01-02T19:37:02.284Z,99911.45
2018-01-02T19:39:29.936Z,99902.21
2018-01-02T19:41:57.478Z,99901.16
2018-01-02T19:44:24.958Z,99894.28
2018-01-02T19:46:53.079Z,99889.28
2018-01-02T19:49:20.531Z,99885.88
2018-01-02T19:51:48.743Z,99884.95
2018-01-02T19:54:16.231Z,99877.97
2018-01-02T19:56:43.749Z,99873.47
2018-01-02T19:59:11.272Z,99874.93
2018-01-02T20:01:38.993Z,99868.73
2018-01-02T20:04:06.503Z,99872.82
2018-01-02T20:06:34.071Z,99864.63
2018-01-02T20:09:01.534Z,99860.69
2018-01-02T20:11:29.012Z,99853.97
2018-01-02T20:13:56.473Z,99859.09
2018-01-02T20:16:24.065Z,99854.34
2018-01-02T20:18:51.540Z,99856.42
2018-01-02T20:21:23.109Z,99857.48
2018-01-02T20:23:50.710Z,99861.69
2018-01-02T20:26:18.178Z,99851.16
2018-01-02T20:28:45.661Z,99845.37
2018-01-02T20:31:13.217Z,99841.26
2018-01-02T20:33:41.515Z,99828.31
2018-01-02T20:36:09.279Z,99826.34
2018-01-02T20:38:36.948Z,99828.44
2018-01-02T20:41:04.521Z,99829.77
2018-01-02T20:43:31.989Z,99819.89
2018-01-02T20:45:59.496Z,99815.39
2018-01-02T20:48:27.006Z,99810.39
2018-01-02T20:50:54.516Z,99802.75
2018-01-02T20:53:22.014Z,99801.69
2018-01-02T20:55:50.609Z,99796.42
2018-01-02T20:58:18.098Z,99798.66
2018-01-02T21:00:45.592Z,99801.94
2018-01-02T21:03:13.081Z,99802.33
2018-01-02T21:05:40.614Z,99796.27
2018-01-02T21:08:08.042Z,99794.67
2018-01-02T21:10:35.576Z,99786.76
2018-01-02T21:13:03.019Z,99781.63
2018-01-02T21:15:30.497Z,99780.31
2018-01-02T21:17:57.944Z,99782.03
2018-01-02T21:20:25.450Z,99781.32
2018-01-02T21:22:52.970Z,99772.36
2018-01-02T21:25:20.476Z,99769.86
2018-01-02T21:27:48.718Z,99769.05
2018-01-02T21:30:16.167Z,99756.00
2018-01-02T21:32:45.239Z,99761.04
2018-01-02T21:35:14.590Z,99752.06
2018-01-02T21:37:47.238Z,99758.28
2018-01-02T21:40:14.765Z,99741.86
2018-01-02T21:42:42.217Z,99733.95
2018-01-02T21:45:09.675Z,99729.60
2018-01-02T21:47:37.161Z,99725.92
2018-01-02T21:50:04.636Z,99720.02
2018-01-02T21:52:32.797Z,99719.87
2018-01-02T21:55:01.722Z,99721.59
2018-01-02T21:57:34.104Z,99709.42
2018-01-02T22:00:02.303Z,99709.55
2018-01-02T22:02:29.740Z,99710.31
2018-01-02T22:04:57.224Z,99705.44
2018-01-02T22:07:24.675Z,99703.20
2018-01-02T22:09:52.162Z,99695.30
2018-01-02T22:12:19.616Z,99685.55
2018-01-02T22:14:47.049Z,99683.69
2018-01-02T22:17:14.509Z,99678.42
2018-01-02T22:19:41.933Z,99678.70
2018-01-02T22:22:09.535Z,99666.58
2018-01-02T22:24:37.017Z,99664.09
2018-01-02T22:27:04.455Z,99658.46
2018-01-02T22:29:36.900Z,99662.65
2018-01-02T22:32:04.330Z,99658.33
2018-01-02T22:34:31.773Z,99659.11
2018-01-02T22:36:59.230Z,99651.63
2018-01-02T22:39:26.698Z,99643.90
2018-01-02T22:41:54.125Z,99649.17
2018-01-02T22:44:21.575Z,99636.88
2018-01-02T22:46:49.020Z,99632.12
2018-01-02T22:49:16.434Z,99629.75
2018-01-02T22:51:43.923Z,99613.61
2018-01-02T22:54:11.355Z,99604.27
2018-01-02T22:56:38.787Z,99607.91
2018-01-02T22:59:06.236Z,99607.94
2018-01-02T23:01:33.687Z,99593.59
2018-01-02T23:04:01.164Z,99582.80
2018-01-02T23:06:28.591Z,99570.94
2018-01-02T23:08:56.041Z,99559.49
2018-01-02T23:11:23.469Z,99556.73
2018-01-02T23:13:50.947Z,99544.47
2018-01-02T23:16:18.432Z,99535.66
2018-01-02T23:18:45.870Z,99523.13
2018-01-02T23:21:13.310Z,99511.27
2018-01-02T23:23:40.727Z,99499.97
2018-01-02T23:26:08.194Z,99492.06
2018-01-02T23:28:35.623Z,99491.25
2018-01-02T23:31:03.072Z,99480.98
2018-01-02T23:33:30.509Z,99475.20
2018-01-02T23:35:57.952Z,99463.72
2018-01-02T23:38:25.423Z,99457.28
2018-01-02T23:40:52.846Z,99452.14
2018-01-02T23:43:20.323Z,99447.80
2018-01-02T23:45:47.757Z,99449.24
2018-01-02T23:48:15.239Z,99430.80
2018-01-02T23:50:42.657Z,99422.11
2018-01-02T23:53:10.129Z,99419.88
2018-01-02T23:55:37.568Z,99408.12
2018-01-02T23:58:04.984Z,99397.71
